sensor_id;sensor_type;location;lat;lon;timestamp;P1;durP1;ratioP1;P2;durP2;ratioP2
72087;SDS011;59961;50.232;8.616;2022-09-27T00:00:32;1.63;;;0.80;;
72087;SDS011;59961;50.232;8.616;2022-09-27T00:02:57;1.85;;;0.80;;
72087;SDS011;59961;50.232;8.616;2022-09-27T00:05:22;1.70;;;1.00;;
72087;SDS011;59961;50.232;8.616;2022-09-27T00:07:48;1.60;;;0.90;;
72087;SDS011;59961;50.232;8.616;2022-09-27T00:10:13;2.27;;;1.00;;
72087;SDS011;59961;50.232;8.616;2022-09-27T00:12:38;1.93;;;1.00;;
72087;SDS011;59961;50.232;8.616;2022-09-27T00:15:04;2.17;;;1.08;;
72087;SDS011;59961;50.232;8.616;2022-09-27T00:17:29;1.40;;;1.05;;
72087;SDS011;59961;50.232;8.616;2022-09-27T00:19:57;3.40;;;1.30;;
72087;SDS011;59961;50.232;8.616;2022-09-27T00:22:22;3.37;;;1.60;;
72087;SDS011;59961;50.232;8.616;2022-09-27T00:24:48;2.38;;;1.08;;
72087;SDS011;59961;50.232;8.616;2022-09-27T00:27:13;1.70;;;1.00;;
72087;SDS011;59961;50.232;8.616;2022-09-27T00:29:38;2.85;;;1.17;;
72087;SDS011;59961;50.232;8.616;2022-09-27T00:32:03;2.22;;;1.10;;
72087;SDS011;59961;50.232;8.616;2022-09-27T00:34:28;3.70;;;1.30;;
72087;SDS011;59961;50.232;8.616;2022-09-27T00:36:54;2.72;;;1.60;;
72087;SDS011;59961;50.232;8.616;2022-09-27T00:39:19;3.15;;;1.27;;
72087;SDS011;59961;50.232;8.616;2022-09-27T00:41:44;3.28;;;1.52;;
72087;SDS011;59961;50.232;8.616;2022-09-27T00:49:38;3.38;;;1.23;;
72087;SDS011;59961;50.232;8.616;2022-09-27T00:52:09;2.50;;;1.30;;
72087;SDS011;59961;50.232;8.616;2022-09-27T00:54:35;3.05;;;1.50;;
72087;SDS011;59961;50.232;8.616;2022-09-27T00:57:02;4.00;;;1.55;;
72087;SDS011;59961;50.232;8.616;2022-09-27T00:59:29;2.72;;;1.60;;
72087;SDS011;59961;50.232;8.616;2022-09-27T01:01:57;8.00;;;1.50;;
72087;SDS011;59961;50.232;8.616;2022-09-27T01:04:23;4.30;;;1.70;;
72087;SDS011;59961;50.232;8.616;2022-09-27T01:06:50;2.73;;;1.50;;
72087;SDS011;59961;50.232;8.616;2022-09-27T01:09:15;4.05;;;1.67;;
72087;SDS011;59961;50.232;8.616;2022-09-27T01:11:47;2.70;;;1.50;;
72087;SDS011;59961;50.232;8.616;2022-09-27T01:22:38;2.72;;;1.48;;
72087;SDS011;59961;50.232;8.616;2022-09-27T01:27:45;2.90;;;1.40;;
72087;SDS011;59961;50.232;8.616;2022-09-27T01:30:25;3.70;;;1.90;;
72087;SDS011;59961;50.232;8.616;2022-09-27T01:32:58;3.55;;;1.48;;
72087;SDS011;59961;50.232;8.616;2022-09-27T01:40:48;3.50;;;1.70;;
72087;SDS011;59961;50.232;8.616;2022-09-27T01:43:15;2.38;;;1.40;;
72087;SDS011;59961;50.232;8.616;2022-09-27T01:45:47;3.95;;;1.92;;
72087;SDS011;59961;50.232;8.616;2022-09-27T01:48:22;3.55;;;1.50;;
72087;SDS011;59961;50.232;8.616;2022-09-27T01:50:55;3.67;;;1.90;;
72087;SDS011;59961;50.232;8.616;2022-09-27T01:53:24;3.20;;;1.77;;
72087;SDS011;59961;50.232;8.616;2022-09-27T01:55:50;3.65;;;1.42;;
72087;SDS011;59961;50.232;8.616;2022-09-27T01:58:18;3.58;;;1.77;;
72087;SDS011;59961;50.232;8.616;2022-09-27T02:00:46;2.83;;;1.30;;
72087;SDS011;59961;50.232;8.616;2022-09-27T02:03:13;4.20;;;1.70;;
72087;SDS011;59961;50.232;8.616;2022-09-27T02:05:44;3.63;;;1.40;;
72087;SDS011;59961;50.232;8.616;2022-09-27T02:08:57;2.97;;;1.52;;
72087;SDS011;59961;50.232;8.616;2022-09-27T02:10:56;4.20;;;1.70;;
72087;SDS011;59961;50.232;8.616;2022-09-27T02:13:39;3.53;;;1.58;;
72087;SDS011;59961;50.232;8.616;2022-09-27T02:16:11;2.30;;;1.48;;
72087;SDS011;59961;50.232;8.616;2022-09-27T02:21:08;4.05;;;1.35;;
72087;SDS011;59961;50.232;8.616;2022-09-27T02:23:38;3.03;;;1.38;;
72087;SDS011;59961;50.232;8.616;2022-09-27T02:28:45;4.00;;;1.52;;
72087;SDS011;59961;50.232;8.616;2022-09-27T02:31:11;1.75;;;1.08;;
72087;SDS011;59961;50.232;8.616;2022-09-27T02:36:05;1.90;;;1.00;;
72087;SDS011;59961;50.232;8.616;2022-09-27T02:38:30;2.73;;;0.97;;
72087;SDS011;59961;50.232;8.616;2022-09-27T02:40:56;3.10;;;1.00;;
72087;SDS011;59961;50.232;8.616;2022-09-27T02:43:21;1.70;;;1.05;;
72087;SDS011;59961;50.232;8.616;2022-09-27T02:45:53;3.35;;;1.05;;
72087;SDS011;59961;50.232;8.616;2022-09-27T02:51:01;4.43;;;1.02;;
72087;SDS011;59961;50.232;8.616;2022-09-27T02:53:31;2.33;;;0.83;;
72087;SDS011;59961;50.232;8.616;2022-09-27T02:56:00;3.63;;;1.38;;
72087;SDS011;59961;50.232;8.616;2022-09-27T03:00:56;2.97;;;1.30;;
72087;SDS011;59961;50.232;8.616;2022-09-27T03:03:33;1.88;;;0.90;;
72087;SDS011;59961;50.232;8.616;2022-09-27T03:06:02;3.10;;;0.88;;
72087;SDS011;59961;50.232;8.616;2022-09-27T03:08:27;1.47;;;0.40;;
72087;SDS011;59961;50.232;8.616;2022-09-27T03:10:53;2.57;;;0.50;;
72087;SDS011;59961;50.232;8.616;2022-09-27T03:13:18;1.33;;;0.70;;
72087;SDS011;59961;50.232;8.616;2022-09-27T03:15:43;1.50;;;0.33;;
72087;SDS011;59961;50.232;8.616;2022-09-27T03:18:08;2.33;;;0.88;;
72087;SDS011;59961;50.232;8.616;2022-09-27T03:20:33;0.68;;;0.43;;
72087;SDS011;59961;50.232;8.616;2022-09-27T03:22:58;1.23;;;0.50;;
72087;SDS011;59961;50.232;8.616;2022-09-27T03:25:24;1.92;;;0.50;;
72087;SDS011;59961;50.232;8.616;2022-09-27T03:27:49;1.13;;;0.40;;
72087;SDS011;59961;50.232;8.616;2022-09-27T03:30:15;1.00;;;0.40;;
72087;SDS011;59961;50.232;8.616;2022-09-27T03:32:43;0.93;;;0.53;;
72087;SDS011;59961;50.232;8.616;2022-09-27T03:35:09;1.08;;;0.40;;
72087;SDS011;59961;50.232;8.616;2022-09-27T03:37:34;0.60;;;0.40;;
72087;SDS011;59961;50.232;8.616;2022-09-27T03:39:59;0.40;;;0.30;;
72087;SDS011;59961;50.232;8.616;2022-09-27T03:42:25;0.63;;;0.40;;
72087;SDS011;59961;50.232;8.616;2022-09-27T03:44:50;1.07;;;0.50;;
72087;SDS011;59961;50.232;8.616;2022-09-27T03:47:15;1.07;;;0.40;;
72087;SDS011;59961;50.232;8.616;2022-09-27T03:49:40;1.73;;;0.30;;
72087;SDS011;59961;50.232;8.616;2022-09-27T03:52:05;0.60;;;0.40;;
72087;SDS011;59961;50.232;8.616;2022-09-27T03:54:30;0.90;;;0.47;;
72087;SDS011;59961;50.232;8.616;2022-09-27T03:56:56;3.40;;;1.47;;
72087;SDS011;59961;50.232;8.616;2022-09-27T03:59:21;0.57;;;0.40;;
72087;SDS011;59961;50.232;8.616;2022-09-27T04:01:46;0.80;;;0.70;;
72087;SDS011;59961;50.232;8.616;2022-09-27T04:04:12;0.70;;;0.40;;
72087;SDS011;59961;50.232;8.616;2022-09-27T04:06:37;0.80;;;0.50;;
72087;SDS011;59961;50.232;8.616;2022-09-27T04:09:02;0.65;;;0.40;;
72087;SDS011;59961;50.232;8.616;2022-09-27T04:11:28;2.03;;;0.50;;
72087;SDS011;59961;50.232;8.616;2022-09-27T04:13:53;1.30;;;0.57;;
72087;SDS011;59961;50.232;8.616;2022-09-27T04:16:20;1.02;;;0.50;;
72087;SDS011;59961;50.232;8.616;2022-09-27T04:18:45;1.20;;;0.65;;
72087;SDS011;59961;50.232;8.616;2022-09-27T04:21:10;1.43;;;0.40;;
72087;SDS011;59961;50.232;8.616;2022-09-27T04:23:35;0.90;;;0.50;;
72087;SDS011;59961;50.232;8.616;2022-09-27T04:26:01;2.67;;;0.45;;
72087;SDS011;59961;50.232;8.616;2022-09-27T04:28:26;0.80;;;0.50;;
72087;SDS011;59961;50.232;8.616;2022-09-27T04:30:54;2.15;;;0.77;;
72087;SDS011;59961;50.232;8.616;2022-09-27T04:33:19;1.53;;;0.60;;
72087;SDS011;59961;50.232;8.616;2022-09-27T04:35:44;1.53;;;0.73;;
72087;SDS011;59961;50.232;8.616;2022-09-27T04:38:28;0.77;;;0.40;;
72087;SDS011;59961;50.232;8.616;2022-09-27T04:40:53;1.38;;;0.50;;
72087;SDS011;59961;50.232;8.616;2022-09-27T04:43:18;0.80;;;0.43;;
72087;SDS011;59961;50.232;8.616;2022-09-27T04:45:44;0.70;;;0.50;;
72087;SDS011;59961;50.232;8.616;2022-09-27T04:48:09;0.80;;;0.47;;
72087;SDS011;59961;50.232;8.616;2022-09-27T04:50:34;1.13;;;0.68;;
72087;SDS011;59961;50.232;8.616;2022-09-27T04:52:59;0.90;;;0.70;;
72087;SDS011;59961;50.232;8.616;2022-09-27T04:55:25;1.10;;;0.60;;
72087;SDS011;59961;50.232;8.616;2022-09-27T04:57:51;0.80;;;0.60;;
72087;SDS011;59961;50.232;8.616;2022-09-27T05:00:16;1.63;;;0.50;;
72087;SDS011;59961;50.232;8.616;2022-09-27T05:02:43;0.93;;;0.50;;
72087;SDS011;59961;50.232;8.616;2022-09-27T05:05:08;1.30;;;0.65;;
72087;SDS011;59961;50.232;8.616;2022-09-27T05:07:34;2.25;;;0.68;;
72087;SDS011;59961;50.232;8.616;2022-09-27T05:09:59;1.03;;;0.40;;
72087;SDS011;59961;50.232;8.616;2022-09-27T05:12:24;1.30;;;0.40;;
72087;SDS011;59961;50.232;8.616;2022-09-27T05:14:50;2.70;;;0.57;;
72087;SDS011;59961;50.232;8.616;2022-09-27T05:17:15;0.70;;;0.40;;
72087;SDS011;59961;50.232;8.616;2022-09-27T05:19:42;0.68;;;0.47;;
72087;SDS011;59961;50.232;8.616;2022-09-27T05:22:07;2.03;;;0.40;;
72087;SDS011;59961;50.232;8.616;2022-09-27T05:24:33;1.73;;;0.70;;
72087;SDS011;59961;50.232;8.616;2022-09-27T05:26:58;2.13;;;0.90;;
72087;SDS011;59961;50.232;8.616;2022-09-27T05:29:24;0.80;;;0.40;;
72087;SDS011;59961;50.232;8.616;2022-09-27T05:31:49;1.52;;;0.75;;
72087;SDS011;59961;50.232;8.616;2022-09-27T05:34:14;1.07;;;0.53;;
72087;SDS011;59961;50.232;8.616;2022-09-27T05:36:39;1.30;;;0.80;;
72087;SDS011;59961;50.232;8.616;2022-09-27T05:39:05;2.13;;;0.60;;
72087;SDS011;59961;50.232;8.616;2022-09-27T05:41:31;1.98;;;0.57;;
72087;SDS011;59961;50.232;8.616;2022-09-27T05:43:56;0.90;;;0.50;;
72087;SDS011;59961;50.232;8.616;2022-09-27T05:46:21;1.63;;;0.40;;
72087;SDS011;59961;50.232;8.616;2022-09-27T05:48:46;0.68;;;0.50;;
72087;SDS011;59961;50.232;8.616;2022-09-27T05:51:12;0.93;;;0.47;;
72087;SDS011;59961;50.232;8.616;2022-09-27T05:53:38;0.73;;;0.50;;
72087;SDS011;59961;50.232;8.616;2022-09-27T05:56:03;0.95;;;0.60;;
72087;SDS011;59961;50.232;8.616;2022-09-27T05:58:28;1.87;;;0.70;;
72087;SDS011;59961;50.232;8.616;2022-09-27T06:00:54;2.60;;;0.50;;
72087;SDS011;59961;50.232;8.616;2022-09-27T06:03:19;1.20;;;0.60;;
72087;SDS011;59961;50.232;8.616;2022-09-27T06:05:44;1.60;;;0.57;;
72087;SDS011;59961;50.232;8.616;2022-09-27T06:08:10;2.03;;;0.65;;
72087;SDS011;59961;50.232;8.616;2022-09-27T06:10:36;2.92;;;0.75;;
72087;SDS011;59961;50.232;8.616;2022-09-27T06:13:03;1.00;;;0.60;;
72087;SDS011;59961;50.232;8.616;2022-09-27T06:15:29;0.80;;;0.50;;
72087;SDS011;59961;50.232;8.616;2022-09-27T06:17:55;1.05;;;0.63;;
72087;SDS011;59961;50.232;8.616;2022-09-27T06:20:20;1.43;;;0.80;;
72087;SDS011;59961;50.232;8.616;2022-09-27T06:22:45;1.40;;;0.60;;
72087;SDS011;59961;50.232;8.616;2022-09-27T06:25:11;1.50;;;0.80;;
72087;SDS011;59961;50.232;8.616;2022-09-27T06:27:36;0.97;;;0.60;;
72087;SDS011;59961;50.232;8.616;2022-09-27T06:30:01;1.40;;;0.77;;
72087;SDS011;59961;50.232;8.616;2022-09-27T06:32:26;1.10;;;0.60;;
72087;SDS011;59961;50.232;8.616;2022-09-27T06:34:51;0.93;;;0.50;;
72087;SDS011;59961;50.232;8.616;2022-09-27T06:37:16;1.57;;;0.70;;
72087;SDS011;59961;50.232;8.616;2022-09-27T06:39:42;0.70;;;0.50;;
72087;SDS011;59961;50.232;8.616;2022-09-27T06:42:07;1.00;;;0.67;;
72087;SDS011;59961;50.232;8.616;2022-09-27T06:44:35;2.38;;;0.88;;
72087;SDS011;59961;50.232;8.616;2022-09-27T06:47:00;1.02;;;0.80;;
72087;SDS011;59961;50.232;8.616;2022-09-27T06:49:25;1.17;;;0.60;;
72087;SDS011;59961;50.232;8.616;2022-09-27T06:51:50;0.80;;;0.47;;
72087;SDS011;59961;50.232;8.616;2022-09-27T06:54:16;0.90;;;0.63;;
72087;SDS011;59961;50.232;8.616;2022-09-27T06:56:41;1.60;;;0.67;;
72087;SDS011;59961;50.232;8.616;2022-09-27T06:59:06;2.67;;;1.00;;
72087;SDS011;59961;50.232;8.616;2022-09-27T07:01:50;1.37;;;0.60;;
72087;SDS011;59961;50.232;8.616;2022-09-27T07:04:16;0.57;;;0.40;;
72087;SDS011;59961;50.232;8.616;2022-09-27T07:06:42;0.70;;;0.50;;
72087;SDS011;59961;50.232;8.616;2022-09-27T07:09:08;1.73;;;0.80;;
72087;SDS011;59961;50.232;8.616;2022-09-27T07:11:33;2.53;;;0.70;;
72087;SDS011;59961;50.232;8.616;2022-09-27T07:14:00;1.33;;;0.50;;
72087;SDS011;59961;50.232;8.616;2022-09-27T07:16:25;0.80;;;0.60;;
72087;SDS011;59961;50.232;8.616;2022-09-27T07:18:51;1.87;;;0.50;;
72087;SDS011;59961;50.232;8.616;2022-09-27T07:21:16;2.63;;;0.88;;
72087;SDS011;59961;50.232;8.616;2022-09-27T07:23:42;2.30;;;0.80;;
72087;SDS011;59961;50.232;8.616;2022-09-27T07:26:08;2.20;;;0.60;;
72087;SDS011;59961;50.232;8.616;2022-09-27T07:28:34;1.40;;;0.57;;
72087;SDS011;59961;50.232;8.616;2022-09-27T07:30:59;1.27;;;0.50;;
72087;SDS011;59961;50.232;8.616;2022-09-27T07:33:26;2.45;;;0.55;;
72087;SDS011;59961;50.232;8.616;2022-09-27T07:35:51;0.80;;;0.50;;
72087;SDS011;59961;50.232;8.616;2022-09-27T07:38:16;2.90;;;0.47;;
72087;SDS011;59961;50.232;8.616;2022-09-27T07:40:42;1.87;;;0.87;;
72087;SDS011;59961;50.232;8.616;2022-09-27T07:43:07;2.10;;;0.47;;
72087;SDS011;59961;50.232;8.616;2022-09-27T07:45:33;0.57;;;0.40;;
72087;SDS011;59961;50.232;8.616;2022-09-27T07:47:59;2.67;;;0.50;;
72087;SDS011;59961;50.232;8.616;2022-09-27T07:50:24;0.87;;;0.40;;
72087;SDS011;59961;50.232;8.616;2022-09-27T07:52:50;1.33;;;0.40;;
72087;SDS011;59961;50.232;8.616;2022-09-27T07:55:15;1.87;;;0.50;;
72087;SDS011;59961;50.232;8.616;2022-09-27T07:57:41;1.33;;;0.50;;
72087;SDS011;59961;50.232;8.616;2022-09-27T08:00:08;2.25;;;0.60;;
72087;SDS011;59961;50.232;8.616;2022-09-27T08:02:34;2.67;;;0.45;;
72087;SDS011;59961;50.232;8.616;2022-09-27T08:04:59;2.97;;;0.60;;
72087;SDS011;59961;50.232;8.616;2022-09-27T08:07:24;1.57;;;0.33;;
72087;SDS011;59961;50.232;8.616;2022-09-27T08:09:50;0.57;;;0.40;;
72087;SDS011;59961;50.232;8.616;2022-09-27T08:12:15;1.90;;;0.87;;
72087;SDS011;59961;50.232;8.616;2022-09-27T08:14:41;2.63;;;0.65;;
72087;SDS011;59961;50.232;8.616;2022-09-27T08:17:08;0.70;;;0.50;;
72087;SDS011;59961;50.232;8.616;2022-09-27T08:19:34;2.22;;;0.70;;
72087;SDS011;59961;50.232;8.616;2022-09-27T08:21:59;3.30;;;0.53;;
72087;SDS011;59961;50.232;8.616;2022-09-27T08:24:24;2.83;;;0.50;;
72087;SDS011;59961;50.232;8.616;2022-09-27T08:26:49;2.00;;;0.57;;
72087;SDS011;59961;50.232;8.616;2022-09-27T08:29:15;1.55;;;0.70;;
72087;SDS011;59961;50.232;8.616;2022-09-27T08:31:40;2.50;;;0.50;;
72087;SDS011;59961;50.232;8.616;2022-09-27T08:34:05;2.42;;;0.40;;
72087;SDS011;59961;50.232;8.616;2022-09-27T08:36:30;2.28;;;0.52;;
72087;SDS011;59961;50.232;8.616;2022-09-27T08:38:59;2.22;;;0.52;;
72087;SDS011;59961;50.232;8.616;2022-09-27T08:41:38;9.55;;;0.60;;
72087;SDS011;59961;50.232;8.616;2022-09-27T08:49:08;1.55;;;0.40;;
72087;SDS011;59961;50.232;8.616;2022-09-27T08:51:34;5.97;;;0.75;;
72087;SDS011;59961;50.232;8.616;2022-09-27T08:54:07;0.80;;;0.50;;
72087;SDS011;59961;50.232;8.616;2022-09-27T08:56:35;0.65;;;0.40;;
72087;SDS011;59961;50.232;8.616;2022-09-27T08:59:03;2.77;;;0.80;;
72087;SDS011;59961;50.232;8.616;2022-09-27T09:01:34;0.90;;;0.55;;
72087;SDS011;59961;50.232;8.616;2022-09-27T09:03:59;2.50;;;0.70;;
72087;SDS011;59961;50.232;8.616;2022-09-27T09:06:52;1.65;;;0.40;;
72087;SDS011;59961;50.232;8.616;2022-09-27T09:09:36;1.83;;;0.45;;
72087;SDS011;59961;50.232;8.616;2022-09-27T09:17:43;2.83;;;0.70;;
72087;SDS011;59961;50.232;8.616;2022-09-27T09:25:05;1.50;;;0.40;;
72087;SDS011;59961;50.232;8.616;2022-09-27T09:27:35;3.33;;;0.70;;
72087;SDS011;59961;50.232;8.616;2022-09-27T09:30:22;0.90;;;0.40;;
72087;SDS011;59961;50.232;8.616;2022-09-27T09:35:34;1.30;;;0.60;;
72087;SDS011;59961;50.232;8.616;2022-09-27T09:38:02;1.10;;;0.47;;
72087;SDS011;59961;50.232;8.616;2022-09-27T09:43:10;2.33;;;0.60;;
72087;SDS011;59961;50.232;8.616;2022-09-27T09:45:39;1.63;;;0.80;;
72087;SDS011;59961;50.232;8.616;2022-09-27T09:50:34;1.73;;;0.45;;
72087;SDS011;59961;50.232;8.616;2022-09-27T09:53:20;1.48;;;0.32;;
72087;SDS011;59961;50.232;8.616;2022-09-27T09:55:57;2.42;;;0.75;;
72087;SDS011;59961;50.232;8.616;2022-09-27T09:58:43;2.90;;;0.60;;
72087;SDS011;59961;50.232;8.616;2022-09-27T10:01:17;0.60;;;0.40;;
72087;SDS011;59961;50.232;8.616;2022-09-27T10:03:43;2.33;;;0.60;;
72087;SDS011;59961;50.232;8.616;2022-09-27T10:06:09;2.15;;;0.60;;
72087;SDS011;59961;50.232;8.616;2022-09-27T10:08:35;3.00;;;0.50;;
72087;SDS011;59961;50.232;8.616;2022-09-27T10:11:00;1.63;;;0.50;;
72087;SDS011;59961;50.232;8.616;2022-09-27T10:13:25;2.23;;;0.50;;
72087;SDS011;59961;50.232;8.616;2022-09-27T10:15:55;0.40;;;0.40;;
72087;SDS011;59961;50.232;8.616;2022-09-27T10:18:23;0.40;;;0.30;;
72087;SDS011;59961;50.232;8.616;2022-09-27T10:20:51;1.15;;;0.50;;
72087;SDS011;59961;50.232;8.616;2022-09-27T10:23:20;1.15;;;0.50;;
72087;SDS011;59961;50.232;8.616;2022-09-27T10:28:24;1.17;;;0.40;;
72087;SDS011;59961;50.232;8.616;2022-09-27T10:30:54;2.00;;;0.40;;
72087;SDS011;59961;50.232;8.616;2022-09-27T10:33:19;1.17;;;0.40;;
72087;SDS011;59961;50.232;8.616;2022-09-27T10:35:45;0.95;;;0.40;;
72087;SDS011;59961;50.232;8.616;2022-09-27T10:40:51;1.08;;;0.57;;
72087;SDS011;59961;50.232;8.616;2022-09-27T10:46:09;0.80;;;0.40;;
72087;SDS011;59961;50.232;8.616;2022-09-27T10:48:36;2.05;;;0.70;;
72087;SDS011;59961;50.232;8.616;2022-09-27T10:51:04;2.63;;;0.50;;
72087;SDS011;59961;50.232;8.616;2022-09-27T10:53:29;1.88;;;0.57;;
72087;SDS011;59961;50.232;8.616;2022-09-27T10:55:55;2.40;;;0.60;;
72087;SDS011;59961;50.232;8.616;2022-09-27T11:00:59;0.73;;;0.50;;
72087;SDS011;59961;50.232;8.616;2022-09-27T11:03:27;1.00;;;0.40;;
72087;SDS011;59961;50.232;8.616;2022-09-27T11:05:53;0.50;;;0.47;;
72087;SDS011;59961;50.232;8.616;2022-09-27T11:13:30;2.93;;;0.47;;
72087;SDS011;59961;50.232;8.616;2022-09-27T11:18:40;1.92;;;0.50;;
72087;SDS011;59961;50.232;8.616;2022-09-27T11:31:42;1.65;;;0.60;;
72087;SDS011;59961;50.232;8.616;2022-09-27T11:37:07;2.40;;;1.10;;
72087;SDS011;59961;50.232;8.616;2022-09-27T11:39:43;1.05;;;0.47;;
72087;SDS011;59961;50.232;8.616;2022-09-27T11:45:16;1.35;;;0.30;;
72087;SDS011;59961;50.232;8.616;2022-09-27T12:00:21;0.70;;;0.40;;
72087;SDS011;59961;50.232;8.616;2022-09-27T12:05:35;1.48;;;0.80;;
72087;SDS011;59961;50.232;8.616;2022-09-27T12:10:30;2.35;;;0.50;;
72087;SDS011;59961;50.232;8.616;2022-09-27T12:12:56;0.70;;;0.45;;
72087;SDS011;59961;50.232;8.616;2022-09-27T12:15:25;1.20;;;0.70;;
72087;SDS011;59961;50.232;8.616;2022-09-27T12:17:55;2.83;;;0.70;;
72087;SDS011;59961;50.232;8.616;2022-09-27T12:20:27;4.85;;;0.63;;
72087;SDS011;59961;50.232;8.616;2022-09-27T12:23:02;2.30;;;0.50;;
72087;SDS011;59961;50.232;8.616;2022-09-27T12:25:33;2.72;;;0.70;;
72087;SDS011;59961;50.232;8.616;2022-09-27T12:28:03;0.80;;;0.40;;
72087;SDS011;59961;50.232;8.616;2022-09-27T12:30:31;2.30;;;0.80;;
72087;SDS011;59961;50.232;8.616;2022-09-27T12:35:43;0.38;;;0.32;;
72087;SDS011;59961;50.232;8.616;2022-09-27T12:38:11;2.05;;;0.60;;
72087;SDS011;59961;50.232;8.616;2022-09-27T12:40:39;2.87;;;0.80;;
72087;SDS011;59961;50.232;8.616;2022-09-27T12:43:26;1.27;;;0.77;;
72087;SDS011;59961;50.232;8.616;2022-09-27T12:51:06;1.60;;;0.60;;
72087;SDS011;59961;50.232;8.616;2022-09-27T13:01:12;0.70;;;0.40;;
72087;SDS011;59961;50.232;8.616;2022-09-27T13:08:59;0.93;;;0.45;;
72087;SDS011;59961;50.232;8.616;2022-09-27T13:14:18;1.45;;;0.60;;
72087;SDS011;59961;50.232;8.616;2022-09-27T13:16:44;2.20;;;0.88;;
72087;SDS011;59961;50.232;8.616;2022-09-27T13:21:55;1.42;;;0.45;;
72087;SDS011;59961;50.232;8.616;2022-09-27T13:29:49;0.93;;;0.60;;
72087;SDS011;59961;50.232;8.616;2022-09-27T13:32:15;1.57;;;0.67;;
72087;SDS011;59961;50.232;8.616;2022-09-27T13:34:45;0.95;;;0.50;;
72087;SDS011;59961;50.232;8.616;2022-09-27T13:37:28;2.05;;;0.60;;
72087;SDS011;59961;50.232;8.616;2022-09-27T13:40:10;1.88;;;0.50;;
72087;SDS011;59961;50.232;8.616;2022-09-27T13:42:47;1.60;;;0.60;;
72087;SDS011;59961;50.232;8.616;2022-09-27T13:45:19;0.70;;;0.53;;
72087;SDS011;59961;50.232;8.616;2022-09-27T13:47:46;2.28;;;0.60;;
72087;SDS011;59961;50.232;8.616;2022-09-27T13:53:21;3.20;;;0.98;;
72087;SDS011;59961;50.232;8.616;2022-09-27T13:58:11;1.10;;;0.50;;
72087;SDS011;59961;50.232;8.616;2022-09-27T14:00:43;1.00;;;0.60;;
72087;SDS011;59961;50.232;8.616;2022-09-27T14:08:25;1.27;;;0.70;;
72087;SDS011;59961;50.232;8.616;2022-09-27T14:10:51;1.83;;;0.70;;
72087;SDS011;59961;50.232;8.616;2022-09-27T14:13:18;1.25;;;0.60;;
72087;SDS011;59961;50.232;8.616;2022-09-27T14:15:44;0.73;;;0.60;;
72087;SDS011;59961;50.232;8.616;2022-09-27T14:18:10;1.25;;;0.60;;
72087;SDS011;59961;50.232;8.616;2022-09-27T14:20:36;1.20;;;0.60;;
72087;SDS011;59961;50.232;8.616;2022-09-27T14:23:03;0.95;;;0.65;;
72087;SDS011;59961;50.232;8.616;2022-09-27T14:25:29;1.83;;;0.80;;
72087;SDS011;59961;50.232;8.616;2022-09-27T14:27:54;1.23;;;0.60;;
72087;SDS011;59961;50.232;8.616;2022-09-27T14:30:20;0.70;;;0.60;;
72087;SDS011;59961;50.232;8.616;2022-09-27T14:32:46;1.15;;;0.50;;
72087;SDS011;59961;50.232;8.616;2022-09-27T14:35:16;0.90;;;0.60;;
72087;SDS011;59961;50.232;8.616;2022-09-27T14:38:01;1.17;;;0.70;;
72087;SDS011;59961;50.232;8.616;2022-09-27T14:40:27;1.75;;;0.75;;
72087;SDS011;59961;50.232;8.616;2022-09-27T14:42:57;0.73;;;0.43;;
72087;SDS011;59961;50.232;8.616;2022-09-27T14:45:29;1.30;;;0.43;;
72087;SDS011;59961;50.232;8.616;2022-09-27T14:47:58;1.20;;;0.68;;
72087;SDS011;59961;50.232;8.616;2022-09-27T14:50:25;2.10;;;0.75;;
72087;SDS011;59961;50.232;8.616;2022-09-27T14:52:52;0.90;;;0.50;;
72087;SDS011;59961;50.232;8.616;2022-09-27T14:55:21;1.00;;;0.65;;
72087;SDS011;59961;50.232;8.616;2022-09-27T14:57:48;1.15;;;0.73;;
72087;SDS011;59961;50.232;8.616;2022-09-27T15:02:44;1.60;;;0.70;;
72087;SDS011;59961;50.232;8.616;2022-09-27T15:05:17;1.23;;;0.57;;
72087;SDS011;59961;50.232;8.616;2022-09-27T15:07:43;2.60;;;1.30;;
72087;SDS011;59961;50.232;8.616;2022-09-27T15:10:16;2.83;;;0.80;;
72087;SDS011;59961;50.232;8.616;2022-09-27T15:12:42;1.42;;;0.73;;
72087;SDS011;59961;50.232;8.616;2022-09-27T15:15:11;2.33;;;0.70;;
72087;SDS011;59961;50.232;8.616;2022-09-27T15:17:40;1.40;;;0.50;;
72087;SDS011;59961;50.232;8.616;2022-09-27T15:20:23;2.65;;;1.48;;
72087;SDS011;59961;50.232;8.616;2022-09-27T15:22:52;0.82;;;0.60;;
72087;SDS011;59961;50.232;8.616;2022-09-27T15:25:22;1.73;;;0.77;;
72087;SDS011;59961;50.232;8.616;2022-09-27T15:27:49;1.15;;;0.75;;
72087;SDS011;59961;50.232;8.616;2022-09-27T15:30:57;2.08;;;0.85;;
72087;SDS011;59961;50.232;8.616;2022-09-27T15:33:03;1.75;;;0.80;;
72087;SDS011;59961;50.232;8.616;2022-09-27T15:35:31;1.60;;;0.60;;
72087;SDS011;59961;50.232;8.616;2022-09-27T15:38:10;2.10;;;1.08;;
72087;SDS011;59961;50.232;8.616;2022-09-27T15:43:12;1.42;;;0.70;;
72087;SDS011;59961;50.232;8.616;2022-09-27T15:45:47;1.83;;;0.60;;
72087;SDS011;59961;50.232;8.616;2022-09-27T15:48:17;2.70;;;0.70;;
72087;SDS011;59961;50.232;8.616;2022-09-27T15:50:42;4.85;;;1.00;;
72087;SDS011;59961;50.232;8.616;2022-09-27T15:53:08;2.30;;;0.70;;
72087;SDS011;59961;50.232;8.616;2022-09-27T15:55:41;2.25;;;1.20;;
72087;SDS011;59961;50.232;8.616;2022-09-27T15:58:11;1.38;;;0.70;;
72087;SDS011;59961;50.232;8.616;2022-09-27T16:00:49;1.83;;;0.80;;
72087;SDS011;59961;50.232;8.616;2022-09-27T16:03:14;1.23;;;0.60;;
72087;SDS011;59961;50.232;8.616;2022-09-27T16:05:39;1.60;;;0.80;;
72087;SDS011;59961;50.232;8.616;2022-09-27T16:08:07;2.90;;;0.80;;
72087;SDS011;59961;50.232;8.616;2022-09-27T16:10:40;2.75;;;0.75;;
72087;SDS011;59961;50.232;8.616;2022-09-27T16:13:06;3.30;;;1.00;;
72087;SDS011;59961;50.232;8.616;2022-09-27T16:15:31;1.77;;;1.00;;
72087;SDS011;59961;50.232;8.616;2022-09-27T16:17:57;3.20;;;0.83;;
72087;SDS011;59961;50.232;8.616;2022-09-27T16:20:23;1.63;;;0.70;;
72087;SDS011;59961;50.232;8.616;2022-09-27T16:22:51;2.40;;;0.70;;
72087;SDS011;59961;50.232;8.616;2022-09-27T16:25:17;4.15;;;1.00;;
72087;SDS011;59961;50.232;8.616;2022-09-27T16:27:42;2.42;;;0.82;;
72087;SDS011;59961;50.232;8.616;2022-09-27T16:30:08;1.98;;;0.90;;
72087;SDS011;59961;50.232;8.616;2022-09-27T16:32:33;4.73;;;1.20;;
72087;SDS011;59961;50.232;8.616;2022-09-27T16:34:59;3.25;;;0.90;;
72087;SDS011;59961;50.232;8.616;2022-09-27T16:37:25;2.40;;;1.03;;
72087;SDS011;59961;50.232;8.616;2022-09-27T16:39:50;2.58;;;0.98;;
72087;SDS011;59961;50.232;8.616;2022-09-27T16:42:26;1.20;;;0.90;;
72087;SDS011;59961;50.232;8.616;2022-09-27T16:44:54;2.08;;;0.93;;
72087;SDS011;59961;50.232;8.616;2022-09-27T16:47:19;2.05;;;0.90;;
72087;SDS011;59961;50.232;8.616;2022-09-27T16:49:46;2.38;;;0.90;;
72087;SDS011;59961;50.232;8.616;2022-09-27T16:52:31;2.30;;;1.00;;
72087;SDS011;59961;50.232;8.616;2022-09-27T16:54:57;1.50;;;0.70;;
72087;SDS011;59961;50.232;8.616;2022-09-27T16:57:22;1.23;;;0.63;;
72087;SDS011;59961;50.232;8.616;2022-09-27T16:59:48;1.67;;;0.70;;
72087;SDS011;59961;50.232;8.616;2022-09-27T17:02:13;1.17;;;0.60;;
72087;SDS011;59961;50.232;8.616;2022-09-27T17:04:38;1.57;;;0.50;;
72087;SDS011;59961;50.232;8.616;2022-09-27T17:07:03;2.25;;;0.60;;
72087;SDS011;59961;50.232;8.616;2022-09-27T17:09:29;1.40;;;0.80;;
72087;SDS011;59961;50.232;8.616;2022-09-27T17:11:54;2.60;;;0.63;;
72087;SDS011;59961;50.232;8.616;2022-09-27T17:14:20;1.65;;;0.70;;
72087;SDS011;59961;50.232;8.616;2022-09-27T17:16:46;2.23;;;0.90;;
72087;SDS011;59961;50.232;8.616;2022-09-27T17:19:11;2.17;;;1.10;;
72087;SDS011;59961;50.232;8.616;2022-09-27T17:21:39;2.05;;;0.98;;
72087;SDS011;59961;50.232;8.616;2022-09-27T17:24:04;2.13;;;0.83;;
72087;SDS011;59961;50.232;8.616;2022-09-27T17:26:30;1.30;;;0.70;;
72087;SDS011;59961;50.232;8.616;2022-09-27T17:28:56;3.33;;;1.30;;